Pagrindinis puslapis
METAR-TAF:

METAR-TAF

Oro uostai :

Clinton-Burns Flat, Oklahoma, Jungtinės Amerikos Valstijos

platuma: 35-21-24N, ilguma: 099-12-13W, Aukštis: 585 m

Dabartinis oras

Ataskaita buvo paskelbta 53 minutes, ne 03:53 UTC
Vėjas 8 kt iš Pietų/Pietryčių
Temperatūra 13°C
Drėgmė 77%
Slėgis 1024 hPa
Matomumas: 16.1 km
Giedras dangus

METAR: KCSM 140353Z 16008KT 10SM CLR 13/09 A3023 RMK AO2 SLP225 T01330094

Laikas: 23:46 (04:46 UTC)

Prognozė

Ataskaita buvo paskelbta 5 valandos ir 20 minutes, ne 23:26 UTC
Prognozė galioja nuo 14 metu 00 UTC su 14 metu 24 UTC
Vėjas 12 kt iš Pietų/Pietryčių
Matomumas: 10 km
Išsisklaidę debesys ne aukštis 6000 ft
Išsisklaidę debesys ne aukštis 15000 ft
Nuo 14 metu 1400 UTC
Vėjas 17 kt iš Pietų su gūsio iki 27 kt
Matomumas: 10 km
Išsisklaidę debesys ne aukštis 4000 ft
Išsisklaidę debesys ne aukštis 25000 ft

TAF: KCSM 132326Z 1400/1424 15012KT P6SM SCT060 SCT150 FM141400 18017G27KT P6SM SCT040 SCT250

Orai ataskaitas ir orų prognozės (METAR, TAF).

turimą stotys yra geltonos ir raudonos taškus žemėlapyje.

Perkelti pele per norėdami pamatyti stoties vardą.

Tada spustelėkite, norėdami matyti oro stebėjimo ir prognozės.

Norėdami pakeisti žemėlapį: spustelėkite ant žalios mygtukų su juodo kryžiaus žemyn,; žalią mygtuką su brūkšneliu, jei norite nutolinti; arba žalių rodyklių gretimoms žemėlapius.


METAR-TAF: